Time;durP1;ratioP1;P1;durP2;ratioP2;P2;SDS_P1;SDS_P2;PMS_P1;PMS_P2;Temp;Humidity;BMP_temperature;BMP_pressure;BME280_temperature;BME280_humidity;BME280_pressure;Samples;Min_cycle;Max_cycle;Signal;HPM_P1;HPM_P2
2022/03/19 00:01:10;;;;;;;0.65;0.65;;;6.40;99.90;;;6.26;100.00;102090.25;4994531;28;20232;-72
2022/03/19 00:03:38;;;;;;;0.10;0.10;;;6.40;99.90;;;6.21;100.00;102079.50;4987751;28;20208;-72
2022/03/19 00:06:07;;;;;;;0.20;0.20;;;6.30;99.90;;;6.15;100.00;102083.53;4994469;28;20208;-74
2022/03/19 00:08:35;;;;;;;0.28;0.28;;;6.30;99.90;;;6.14;100.00;102081.72;4991965;28;20209;-74
2022/03/19 00:11:03;;;;;;;0.20;0.20;;;6.30;99.90;;;6.01;100.00;102081.06;4993042;28;20216;-74
2022/03/19 00:13:31;;;;;;;0.30;0.30;;;6.20;99.90;;;5.97;100.00;102081.72;4964952;28;20209;-73
2022/03/19 00:15:59;;;;;;;0.20;0.20;;;6.20;99.90;;;5.87;100.00;102082.00;4974862;28;20651;-75
2022/03/19 00:18:27;;;;;;;0.65;0.65;;;6.10;99.90;;;5.92;100.00;102093.69;4974482;28;20242;-72
2022/03/19 00:20:56;;;;;;;0.30;0.30;;;6.10;99.90;;;5.79;100.00;102093.81;4973263;28;20225;-73
2022/03/19 00:23:25;;;;;;;0.20;0.20;;;6.00;99.90;;;5.79;100.00;102093.81;4976422;28;20205;-74
2022/03/19 00:25:53;;;;;;;0.22;0.22;;;5.90;99.90;;;5.94;100.00;102120.06;4991747;28;20216;-75
2022/03/19 00:28:21;;;;;;;0.30;0.30;;;;;;;5.92;100.00;102112.09;4987457;28;20218;-72
2022/03/19 00:30:49;;;;;;;0.30;0.30;;;6.00;99.90;;;5.99;100.00;102115.94;4973456;28;20229;-72
2022/03/19 00:33:17;;;;;;;0.20;0.20;;;6.00;99.90;;;5.82;100.00;102101.88;4986889;28;20216;-73
2022/03/19 00:35:45;;;;;;;0.20;0.20;;;6.00;99.90;;;5.79;100.00;102109.56;4992143;28;20204;-74
2022/03/19 00:38:14;;;;;;;1.00;1.00;;;5.90;99.90;;;5.76;100.00;102105.06;4993253;28;20220;-74
2022/03/19 00:40:43;;;;;;;0.20;0.20;;;5.90;99.90;;;5.76;100.00;102112.03;4991010;28;20220;-73
2022/03/19 00:43:11;;;;;;;0.20;0.20;;;5.90;99.90;;;5.66;100.00;102105.38;4993430;28;20213;-74
2022/03/19 00:45:39;;;;;;;0.20;0.20;;;5.80;99.90;;;5.67;100.00;102112.44;4992378;28;20208;-73
2022/03/19 00:48:07;;;;;;;0.20;0.20;;;5.80;99.90;;;5.72;100.00;102121.47;4988881;28;20204;-73
2022/03/19 00:50:35;;;;;;;0.20;0.20;;;5.80;99.90;;;5.89;100.00;102129.38;4992418;28;20227;-73
2022/03/19 00:53:03;;;;;;;0.57;0.57;;;5.80;99.90;;;5.83;100.00;102118.53;4993974;28;20200;-73
2022/03/19 00:55:31;;;;;;;0.20;0.20;;;5.90;99.90;;;5.96;100.00;102127.19;4992726;28;20213;-73
2022/03/19 00:57:59;;;;;;;0.43;0.43;;;6.40;99.90;;;5.89;100.00;102110.97;4985402;28;20205;-73
2022/03/19 01:00:27;;;;;;;0.30;0.30;;;5.90;99.90;;;5.88;100.00;102103.91;4991081;28;20240;-73
2022/03/19 01:02:56;;;;;;;0.30;0.30;;;5.90;99.90;;;5.70;100.00;102094.22;4982580;28;20616;-73
2022/03/19 01:05:25;;;;;;;0.20;0.20;;;5.90;99.90;;;5.38;100.00;102076.69;4982582;28;20216;-73
2022/03/19 01:07:55;;;;;;;0.20;0.20;;;5.70;99.90;;;5.25;100.00;102073.28;4978257;28;20197;-73
2022/03/19 01:10:26;;;;;;;0.20;0.20;;;5.50;99.90;;;5.12;100.00;102072.56;4991600;28;20228;-73
2022/03/19 01:12:57;;;;;;;0.20;0.20;;;5.40;99.90;;;5.06;100.00;102087.94;4990897;28;20212;-72
2022/03/19 01:15:25;;;;;;;0.30;0.30;;;5.30;99.90;;;5.03;100.00;102090.41;4974473;28;20205;-73
2022/03/19 01:17:54;;;;;;;0.30;0.30;;;5.30;99.90;;;4.93;100.00;102095.94;4991472;28;20232;-73
2022/03/19 01:20:22;;;;;;;0.30;0.30;;;5.20;99.90;;;4.93;100.00;102105.50;4992597;28;20277;-73
2022/03/19 01:22:51;;;;;;;0.20;0.20;;;5.10;99.90;;;4.93;100.00;102110.75;4991930;28;20201;-73
2022/03/19 01:25:19;;;;;;;0.20;0.20;;;5.10;99.90;;;4.98;100.00;102111.91;4992564;28;20211;-73
2022/03/19 01:27:49;;;;;;;0.30;0.30;;;5.10;99.90;;;4.94;100.00;102107.31;4990620;28;20201;-73
2022/03/19 01:30:21;;;;;;;0.20;0.20;;;5.00;99.90;;;4.98;100.00;102111.91;4990109;28;20228;-73
2022/03/19 01:32:50;;;;;;;0.20;0.20;;;5.00;99.90;;;4.92;100.00;102107.22;4991211;28;20204;-73
2022/03/19 01:35:20;;;;;;;0.30;0.30;;;5.00;99.90;;;4.86;100.00;102090.25;4989436;28;20219;-73
2022/03/19 01:37:50;;;;;;;0.20;0.20;;;5.00;99.90;;;4.80;100.00;102085.53;4992077;28;20211;-73
2022/03/19 01:40:20;;;;;;;0.20;0.20;;;5.00;99.90;;;4.78;100.00;102082.81;4992073;28;20247;-73
2022/03/19 01:42:51;;;;;;;0.30;0.30;;;4.90;99.90;;;4.76;100.00;102073.06;4992267;28;20213;-75
2022/03/19 01:45:24;;;;;;;0.20;0.20;;;4.90;99.90;;;4.76;100.00;102063.50;4988080;28;20212;-75
2022/03/19 01:47:53;;;;;;;0.20;0.20;;;4.80;99.90;;;4.64;100.00;102046.16;4992147;28;20213;-74
2022/03/19 01:50:24;;;;;;;0.30;0.30;;;4.80;99.90;;;4.68;100.00;102035.94;4991844;28;20224;-75
2022/03/19 01:52:52;;;;;;;0.20;0.20;;;4.80;99.90;;;4.69;100.00;102037.75;4991049;28;20227;-75
2022/03/19 01:55:39;;;;;;;0.20;0.20;;;4.80;99.90;;;4.64;100.00;102019.94;4982177;28;20209;-74
2022/03/19 01:58:21;;;;;;;0.20;0.20;;;4.80;99.90;;;4.64;100.00;102017.31;4977415;28;20204;-76
2022/03/19 02:00:50;;;;;;;0.28;0.28;;;4.70;99.90;;;4.69;100.00;102013.25;4991674;28;20228;-75
2022/03/19 02:03:18;;;;;;;0.20;0.20;;;4.70;99.90;;;4.72;100.00;102008.19;4990379;28;20200;-75
2022/03/19 02:05:48;;;;;;;0.28;0.28;;;4.80;99.90;;;4.70;100.00;102005.47;4990533;28;20213;-75
2022/03/19 02:08:19;;;;;;;0.28;0.28;;;4.70;99.90;;;4.78;100.00;102012.06;4991412;28;20584;-74
2022/03/19 02:10:47;;;;;;;0.30;0.30;;;4.80;99.90;;;4.83;100.00;102004.47;4991607;28;20233;-76
2022/03/19 02:13:15;;;;;;;0.20;0.20;;;4.80;99.90;;;4.78;100.00;101993.72;4980761;28;20232;-75
2022/03/19 02:15:45;;;;;;;0.20;0.20;;;4.80;99.90;;;4.77;100.00;102002.38;4981680;28;20205;-73
2022/03/19 02:18:13;;;;;;;3.92;1.25;;;4.80;99.90;;;4.75;100.00;101993.53;4984488;28;20204;-73
2022/03/19 02:20:41;;;;;;;0.20;0.20;;;4.80;99.90;;;4.80;100.00;101996.41;4991328;28;20247;-73
2022/03/19 02:26:10;;;;;;;0.20;0.20;;;4.80;99.90;;;4.76;100.00;101989.19;4975641;28;20690;-73
2022/03/19 02:28:38;;;;;;;0.20;0.20;;;4.80;99.90;;;4.74;100.00;101986.50;4986776;28;20216;-73
2022/03/19 02:31:06;;;;;;;0.20;0.20;;;4.80;99.90;;;4.74;100.00;101996.97;4982700;28;20221;-73
2022/03/19 02:33:34;;;;;;;0.65;0.65;;;4.80;99.90;;;4.80;100.00;101993.78;4965129;28;20212;-73
2022/03/19 02:36:02;;;;;;;0.20;0.20;;;4.80;99.90;;;4.66;100.00;101979.00;4991890;28;20216;-73
2022/03/19 02:38:30;;;;;;;0.20;0.20;;;4.80;99.90;;;4.61;100.00;101983.06;4991455;28;20208;-73
2022/03/19 02:40:58;;;;;;;0.20;0.20;;;4.70;99.90;;;4.51;100.00;101968.53;4984870;28;20232;-73
2022/03/19 02:43:26;;;;;;;0.30;0.30;;;4.70;99.90;;;4.52;100.00;101986.06;4987220;28;20201;-73
2022/03/19 02:45:54;;;;;;;0.20;0.20;;;4.60;99.90;;;4.49;100.00;101971.06;4987284;28;20216;-73
2022/03/19 02:48:22;;;;;;;0.20;0.20;;;4.60;99.90;;;4.54;100.00;101975.69;4990019;28;20202;-73
2022/03/19 02:50:50;;;;;;;0.20;0.20;;;4.60;99.90;;;4.64;100.00;101991.13;4975462;28;20248;-73
2022/03/19 02:53:19;;;;;;;0.20;0.20;;;4.60;99.90;;;4.62;100.00;101972.69;4994521;28;20219;-72
2022/03/19 02:55:47;;;;;;;0.20;0.20;;;4.70;99.90;;;4.54;100.00;101967.81;4990636;28;20224;-73
2022/03/19 02:58:15;;;;;;;0.20;0.20;;;4.70;99.90;;;4.55;100.00;101972.25;4995232;28;20205;-73
2022/03/19 03:00:43;;;;;;;1.88;1.85;;;4.60;99.90;;;4.43;100.00;101957.63;4994553;28;20241;-73
2022/03/19 03:03:11;;;;;;;0.20;0.20;;;4.60;99.90;;;4.41;100.00;101959.25;4994386;28;20201;-73
2022/03/19 03:05:41;;;;;;;0.20;0.20;;;4.60;99.90;;;4.38;100.00;101952.94;4977236;28;20220;-74
2022/03/19 03:08:08;;;;;;;0.20;0.20;;;4.50;99.90;;;4.36;100.00;101952.84;4980162;28;20212;-73
2022/03/19 03:10:36;;;;;;;0.20;0.20;;;4.40;99.90;;;4.28;100.00;101951.50;4973534;28;20221;-73
2022/03/19 03:13:05;;;;;;;0.20;0.20;;;4.40;99.90;;;4.25;100.00;101951.31;4985978;28;20200;-73
2022/03/19 03:15:34;;;;;;;0.20;0.20;;;4.40;99.90;;;4.18;100.00;101949.16;4993456;28;20213;-73
2022/03/19 03:18:04;;;;;;;0.20;0.20;;;4.30;99.90;;;4.15;100.00;101943.75;4993260;28;20208;-74
2022/03/19 03:20:34;;;;;;;0.30;0.30;;;4.30;99.90;;;4.10;100.00;101938.22;4992689;28;20728;-73
2022/03/19 03:23:03;;;;;;;0.20;0.20;;;4.40;99.90;;;4.03;100.00;101943.00;4993994;28;20193;-74
2022/03/19 03:25:31;;;;;;;0.22;0.22;;;4.20;99.90;;;3.98;100.00;101936.59;4994551;28;20219;-73
2022/03/19 03:27:59;;;;;;;1.23;1.23;;;4.20;99.90;;;3.92;100.00;101945.00;4981904;28;20258;-73
2022/03/19 03:30:27;;;;;;;0.20;0.20;;;4.30;99.90;;;3.85;100.00;101941.06;4992445;28;20248;-73
2022/03/19 03:32:55;;;;;;;0.30;0.30;;;4.10;99.90;;;3.81;100.00;101943.41;4994200;28;20204;-73
2022/03/19 03:35:25;;;;;;;0.20;0.20;;;4.10;99.90;;;3.80;100.00;101950.34;4994542;28;20219;-74
2022/03/19 03:37:55;;;;;;;0.30;0.30;;;4.00;99.90;;;3.77;100.00;101955.41;4994061;28;20200;-73
2022/03/19 03:40:22;;;;;;;0.30;0.30;;;4.00;99.90;;;3.71;100.00;101948.91;4994195;28;20235;-73
2022/03/19 03:42:50;;;;;;;0.30;0.30;;;4.10;99.90;;;3.72;100.00;101958.56;4994570;28;20209;-73
2022/03/19 03:45:19;;;;;;;0.20;0.20;;;3.90;99.90;;;3.66;100.00;101955.56;4994258;28;20209;-73
2022/03/19 03:47:47;;;;;;;0.20;0.20;;;4.00;99.90;;;3.60;100.00;101957.81;4990817;28;20205;-73
2022/03/19 03:50:16;;;;;;;3.05;2.75;;;3.80;99.90;;;3.55;100.00;101960.16;4991059;28;20231;-73
2022/03/19 03:52:43;;;;;;;0.30;0.30;;;3.80;99.90;;;3.54;100.00;101963.56;4990587;28;20205;-73
2022/03/19 03:55:12;;;;;;;0.30;0.30;;;3.70;99.90;;;3.54;100.00;101966.19;4992972;28;20207;-73
2022/03/19 03:57:40;;;;;;;0.20;0.20;;;3.70;99.90;;;3.46;100.00;101959.59;4992756;28;20205;-74
2022/03/19 04:00:09;;;;;;;0.30;0.30;;;3.70;99.90;;;3.46;100.00;101957.88;4993975;28;20736;-73
2022/03/19 04:02:41;;;;;;;0.30;0.30;;;3.70;99.90;;;3.39;100.00;101960.91;4994555;28;20200;-73
2022/03/19 04:05:10;;;;;;;0.30;0.30;;;3.60;99.90;;;3.46;100.00;101980.50;4984764;28;20205;-73
2022/03/19 04:07:37;;;;;;;0.30;0.30;;;3.60;99.90;;;3.46;100.00;101978.78;4994087;28;20197;-73
2022/03/19 04:10:06;;;;;;;0.20;0.20;;;3.60;99.90;;;3.42;100.00;101975.88;4992538;28;20225;-73
2022/03/19 04:12:36;;;;;;;0.25;0.25;;;3.60;99.90;;;3.42;100.00;101975.88;4993692;28;20292;-73
2022/03/19 04:15:06;;;;;;;0.30;0.30;;;3.60;99.90;;;3.40;100.00;101978.41;4977073;28;20205;-73
2022/03/19 04:17:34;;;;;;;0.28;0.28;;;3.60;99.90;;;3.27;100.00;101968.00;4991248;28;20205;-73
2022/03/19 04:20:05;;;;;;;0.30;0.30;;;3.50;99.90;;;3.34;100.00;101982.34;4993244;28;20239;-74
2022/03/19 04:22:39;;;;;;;0.20;0.20;;;3.50;99.90;;;3.30;100.00;101983.88;4993774;28;20205;-73
2022/03/19 04:25:14;;;;;;;0.40;0.40;;;3.50;99.90;;;3.21;100.00;101983.28;4994079;28;20215;-73
2022/03/19 04:27:46;;;;;;;0.30;0.30;;;3.50;99.90;;;3.13;100.00;101985.44;4985210;28;20201;-73
2022/03/19 04:30:16;;;;;;;0.30;0.30;;;3.40;99.90;;;3.12;100.00;101990.56;4992844;28;20221;-73
2022/03/19 04:32:49;;;;;;;0.30;0.30;;;3.40;99.90;;;3.11;100.00;101986.13;4992096;28;20220;-73
2022/03/19 04:38:11;;;;;;;0.20;0.20;;;3.30;99.90;;;3.08;100.00;102001.63;4993329;28;20208;-73
2022/03/19 04:40:41;;;;;;;0.30;0.30;;;3.30;99.90;;;3.02;100.00;101994.28;4975317;28;20240;-73
2022/03/19 04:43:09;;;;;;;0.20;0.20;;;3.20;99.90;;;2.96;100.00;101996.50;4982247;28;20220;-73
2022/03/19 04:45:39;;;;;;;0.30;0.30;;;3.30;99.90;;;2.95;100.00;102002.53;4973662;28;20670;-73
2022/03/19 04:48:08;;;;;;;0.30;0.30;;;3.20;99.90;;;2.95;100.00;102012.09;4987076;28;20201;-73
2022/03/19 04:50:38;;;;;;;0.30;0.30;;;3.10;99.90;;;2.89;100.00;102015.22;4990431;28;20233;-73
2022/03/19 04:53:08;;;;;;;0.30;0.30;;;3.30;99.90;;;2.86;100.00;102020.25;4993368;28;20665;-73
2022/03/19 04:55:38;;;;;;;0.20;0.20;;;3.10;99.90;;;2.85;100.00;102026.28;4992862;28;20215;-73
2022/03/19 04:58:07;;;;;;;0.30;0.30;;;3.00;99.90;;;2.79;100.00;102026.78;4992825;28;20209;-73
2022/03/19 05:00:37;;;;;;;0.30;0.30;;;3.00;99.90;;;2.76;100.00;102041.34;4992782;28;20243;-73
2022/03/19 05:03:06;;;;;;;0.30;0.30;;;3.00;99.90;;;2.67;100.00;102027.69;4991528;28;20535;-73
2022/03/19 05:05:34;;;;;;;0.30;0.30;;;3.00;99.90;;;2.72;100.00;102053.31;4992431;28;20212;-73
2022/03/19 05:08:05;;;;;;;0.30;0.30;;;3.00;99.90;;;2.79;100.00;102070.28;4993224;28;20204;-73
2022/03/19 05:13:20;;;;;;;0.30;0.30;;;2.90;99.90;;;2.71;100.00;102061.03;4991863;28;20215;-73
2022/03/19 05:15:48;;;;;;;0.40;0.40;;;2.80;99.90;;;2.67;100.00;102057.31;4991410;28;20207;-73
2022/03/19 05:18:23;;;;;;;0.30;0.30;;;2.90;99.90;;;2.83;100.00;102091.50;4989216;28;20223;-74
2022/03/19 05:20:51;;;;;;;0.30;0.30;;;2.80;99.90;;;2.78;100.00;102081.53;4986615;28;20228;-78
2022/03/19 05:23:19;;;;;;;0.30;0.30;;;3.10;99.90;;;2.81;100.00;102077.44;4976918;28;20205;-78
2022/03/19 05:25:47;;;;;;;0.30;0.30;;;3.00;99.90;;;2.86;100.00;102094.31;4983246;28;20642;-77
2022/03/19 05:28:15;;;;;;;0.30;0.30;;;2.90;99.90;;;2.85;100.00;102083.75;4981207;28;20219;-78
2022/03/19 05:30:53;;;;;;;0.35;0.35;;;2.90;99.90;;;2.83;100.00;102094.09;4985153;28;20231;-78
2022/03/19 05:34:29;;;;;;;0.30;0.30;;;3.00;99.90;;;2.87;100.00;102095.22;4984882;28;20209;-76
2022/03/19 05:36:13;;;;;;;0.30;0.30;;;3.00;99.90;;;2.88;100.00;102112.69;4990310;28;20212;-76
2022/03/19 05:38:41;;;;;;;0.30;0.30;;;3.00;99.90;;;2.83;100.00;102103.66;5007193;28;20211;-77
2022/03/19 05:41:10;;;;;;;0.30;0.30;;;3.00;99.90;;;2.84;100.00;102103.75;4972728;28;20230;-77
2022/03/19 05:43:38;;;;;;;0.30;0.30;;;3.10;99.90;;;2.83;100.00;102109.78;4990060;28;20208;-78
2022/03/19 05:46:05;;;;;;;0.30;0.30;;;3.10;99.90;;;2.83;100.00;102112.41;4993783;28;20205;-78
2022/03/19 05:48:35;;;;;;;0.30;0.30;;;2.90;99.90;;;2.80;100.00;102116.50;4993661;28;20201;-78
2022/03/19 05:51:03;;;;;;;0.20;0.20;;;2.90;99.90;;;2.81;100.00;102111.41;4993718;28;20228;-79
2022/03/19 05:53:36;;;;;;;0.30;0.30;;;3.10;99.90;;;2.78;100.00;102126.88;4994235;28;20227;-79
2022/03/19 05:56:05;;;;;;;0.45;0.45;;;2.90;99.90;;;2.83;100.00;102132.41;4994328;28;20204;-80
2022/03/19 05:58:33;;;;;;;0.30;0.30;;;2.90;99.90;;;2.84;100.00;102142.94;4994160;28;20688;-78
2022/03/19 06:01:01;;;;;;;0.30;0.30;;;3.10;99.90;;;2.88;100.00;102142.34;4992818;28;20236;-79
2022/03/19 06:03:29;;;;;;;0.30;0.30;;;3.30;99.90;;;2.88;100.00;102144.97;4993120;28;20203;-79
2022/03/19 06:05:57;;;;;;;0.40;0.40;;;3.00;99.90;;;2.87;100.00;102148.38;4993116;28;20237;-80
2022/03/19 06:08:25;;;;;;;0.30;0.30;;;3.10;99.90;;;2.89;100.00;102151.09;4991208;28;20200;-80
2022/03/19 06:10:53;;;;;;;0.30;0.30;;;3.70;99.90;;;2.88;100.00;102150.19;4992461;28;20584;-81
2022/03/19 06:13:21;;;;;;;0.40;0.40;;;3.00;99.90;;;2.87;100.00;102155.31;4992733;28;20216;-81
2022/03/19 06:15:50;;;;;;;0.30;0.30;;;3.70;99.90;;;2.94;100.00;102169.69;4993013;28;20212;-82
2022/03/19 06:18:18;;;;;;;0.30;0.30;;;4.00;99.90;;;2.94;100.00;102160.16;4983698;28;20205;-80
2022/03/19 06:20:46;;;;;;;0.40;0.40;;;3.00;99.90;;;2.88;100.00;102157.13;4989561;28;20224;-80
2022/03/19 06:23:13;;;;;;;0.20;0.20;;;3.00;99.90;;;2.88;100.00;102163.25;4988454;28;20223;-79
2022/03/19 06:25:41;;;;;;;0.40;0.40;;;3.20;99.90;;;2.88;100.00;102163.25;4996873;28;20200;-79
2022/03/19 06:28:09;;;;;;;0.30;0.30;;;3.00;99.90;;;2.94;100.00;102174.94;4990764;28;20221;-79
2022/03/19 06:30:37;;;;;;;0.30;0.30;;;3.00;99.90;;;2.96;100.00;102173.31;4994166;28;20228;-79
2022/03/19 06:33:06;;;;;;;0.30;0.30;;;3.20;99.90;;;3.04;100.00;102186.09;4996848;28;20204;-79
2022/03/19 06:38:28;;;;;;;0.30;0.30;;;3.90;99.90;;;3.07;100.00;102195.84;4993668;28;20197;-79
2022/03/19 06:40:59;;;;;;;0.35;0.35;;;4.00;99.90;;;3.17;100.00;102208.75;4988951;28;20221;-78
2022/03/19 06:43:27;;;;;;;0.30;0.30;;;3.20;99.90;;;3.20;100.00;102208.94;4977131;28;20209;-79
2022/03/19 06:45:57;;;;;;;0.30;0.30;;;3.20;99.90;;;3.35;100.00;102227.38;4993750;28;20220;-79
2022/03/19 06:48:26;;;;;;;0.28;0.28;;;3.40;99.90;;;3.45;100.00;102230.69;4994303;28;20224;-78
2022/03/19 06:50:55;;;;;;;0.20;0.20;;;3.40;99.90;;;3.63;100.00;102243.16;4985361;28;20228;-80
2022/03/19 06:53:24;;;;;;;0.30;0.30;;;3.70;99.90;;;3.71;100.00;102241.97;4996609;28;20204;-81
2022/03/19 06:55:53;;;;;;;0.30;0.30;;;3.60;99.90;;;3.73;100.00;102246.50;4995195;28;20200;-78
2022/03/19 06:58:21;;;;;;;0.30;0.30;;;3.60;99.90;;;3.86;100.00;102256.03;4993439;28;20209;-80
2022/03/19 07:00:50;;;;;;;0.30;0.30;;;3.80;99.90;;;3.94;100.00;102256.56;4990961;28;20236;-80
2022/03/19 07:03:19;;;;;;;0.30;0.30;;;3.90;99.90;;;4.05;100.00;102252.94;5006818;28;20228;-80
2022/03/19 07:05:47;;;;;;;0.30;0.30;;;3.90;99.90;;;4.17;100.00;102266.81;4988909;28;20209;-81
2022/03/19 07:08:15;;;;;;;0.30;0.30;;;4.00;99.90;;;4.18;100.00;102248.56;4994281;28;20216;-80
2022/03/19 07:10:43;;;;;;;0.30;0.30;;;4.10;99.90;;;4.27;100.00;102255.19;4992335;28;20233;-80
2022/03/19 07:13:11;;;;;;;0.28;0.28;;;4.20;99.90;;;4.39;100.00;102256.88;4976546;28;20205;-81
2022/03/19 07:15:40;;;;;;;0.25;0.25;;;4.30;99.90;;;4.45;100.00;102259.88;4995210;28;20209;-80
2022/03/19 07:18:08;;;;;;;0.30;0.30;;;4.40;99.90;;;4.61;100.00;102272.22;4992486;28;20201;-81
2022/03/19 07:20:36;;;;;;;0.30;0.30;;;4.50;99.90;;;4.75;100.00;102278.31;4996029;28;20235;-79
2022/03/19 07:23:07;;;;;;;0.30;0.30;;;4.60;99.90;;;4.89;100.00;102279.16;4994530;28;20228;-79
2022/03/19 07:25:38;;;;;;;0.30;0.30;;;4.70;99.90;;;4.97;100.00;102281.44;5008273;28;20209;-80
2022/03/19 07:28:12;;;;;;;0.30;0.30;;;4.90;99.90;;;5.04;100.00;102277.47;5005347;28;20205;-82
2022/03/19 07:30:41;;;;;;;0.60;0.60;;;4.90;99.90;;;5.09;100.00;102271.69;4995575;28;20224;-80
2022/03/19 07:33:11;;;;;;;0.20;0.20;;;5.00;99.90;;;5.25;100.00;102273.56;4995248;28;20209;-79
2022/03/19 07:35:41;;;;;;;0.20;0.20;;;5.10;99.90;;;5.36;100.00;102264.59;4995907;28;20207;-80
2022/03/19 07:38:11;;;;;;;0.20;0.20;;;5.20;99.90;;;5.49;100.00;102268.84;4975937;28;20209;-80
2022/03/19 07:43:27;;;;;;;0.30;0.30;;;5.50;99.90;;;5.80;100.00;102263.66;4992059;28;20240;-81
2022/03/19 07:45:55;;;;;;;0.20;0.20;;;5.60;99.90;;;6.04;100.00;102253.69;4995666;28;20197;-80
2022/03/19 07:48:23;;;;;;;1.45;1.38;;;5.80;99.90;;;5.98;100.00;102229.69;4996100;28;20205;-82
2022/03/19 07:50:55;;;;;;;0.20;0.20;;;5.90;99.90;;;6.14;100.00;102224.47;4995293;28;20220;-80
2022/03/19 07:53:23;;;;;;;0.20;0.20;;;6.00;99.90;;;6.22;100.00;102217.03;4994453;28;20209;-81
2022/03/19 07:55:53;;;;;;;0.20;0.20;;;6.10;99.90;;;6.35;100.00;102222.13;4995129;28;20205;-81
2022/03/19 07:58:22;;;;;;;0.40;0.40;;;6.20;99.90;;;6.47;100.00;102199.13;4995380;28;20213;-81
2022/03/19 08:00:50;;;;;;;0.30;0.30;;;6.30;99.90;;;6.67;100.00;102200.22;4995909;28;20228;-79
2022/03/19 08:03:19;;;;;;;0.20;0.20;;;6.40;99.90;;;6.74;100.00;102181.31;4990420;28;20225;-80
2022/03/19 08:05:48;;;;;;;0.30;0.30;;;6.50;99.90;;;6.85;100.00;102181.88;4988848;28;20582;-78
2022/03/19 08:08:16;;;;;;;0.20;0.20;;;6.60;99.90;;;7.03;100.00;102180.19;5012444;28;20213;-79
2022/03/19 08:10:45;;;;;;;0.20;0.20;;;6.70;99.90;;;7.15;100.00;102170.28;4994465;28;20228;-80
2022/03/19 08:13:13;;;;;;;0.30;0.30;;;6.90;99.90;;;7.30;99.76;102167.53;5009218;28;20212;-80
2022/03/19 08:15:41;;;;;;;0.20;0.20;;;7.00;99.90;;;7.49;98.54;102156.16;4994878;28;20228;-78
2022/03/19 08:18:11;;;;;;;0.20;0.20;;;7.20;99.90;;;7.77;97.00;102161.03;4993820;28;20681;-82
2022/03/19 08:20:39;;;;;;;0.20;0.20;;;7.40;99.90;;;7.81;97.66;102144.59;4996485;28;20224;-79
2022/03/19 08:23:09;;;;;;;0.20;0.20;;;7.50;99.90;;;7.91;96.16;102120.47;5005416;28;20233;-80
2022/03/19 08:25:38;;;;;;;0.80;0.80;;;7.70;99.90;;;8.15;94.30;102133.88;4980551;28;20206;-80
2022/03/19 08:28:05;;;;;;;0.20;0.20;;;7.80;99.90;;;8.15;93.43;102104.88;5007968;28;20209;-80
2022/03/19 08:30:34;;;;;;;0.22;0.22;;;7.90;99.90;;;8.19;92.41;102093.66;4993250;28;20227;-80
2022/03/19 08:33:02;;;;;;;0.20;0.20;;;7.90;99.90;;;8.38;90.62;102080.50;5009409;28;20208;-80
2022/03/19 08:35:30;;;;;;;0.20;0.20;;;8.10;99.90;;;8.46;88.45;102047.47;5008561;28;20216;-79
2022/03/19 08:40:45;;;;;;;0.15;0.15;;;8.20;99.90;;;8.56;87.46;102025.03;4993169;28;20224;-79
2022/03/19 08:43:13;;;;;;;0.17;0.17;;;8.30;99.90;;;8.68;85.92;102008.81;4992582;28;20237;-78
2022/03/19 08:45:41;;;;;;;0.20;0.20;;;8.40;99.90;;;8.72;84.94;101982.63;4993845;28;20200;-79
2022/03/19 08:48:09;;;;;;;0.20;0.20;;;8.50;99.90;;;8.88;85.27;101989.44;4985960;28;20209;-79
2022/03/19 08:50:37;;;;;;;0.20;0.20;;;8.60;99.90;;;8.93;83.89;101972.03;4993035;28;20233;-80
2022/03/19 08:53:05;;;;;;;0.10;0.10;;;8.70;99.90;;;9.04;83.96;101973.38;4992565;28;20208;-80
2022/03/19 08:55:33;;;;;;;0.20;0.20;;;8.70;99.90;;;9.13;81.94;101946.47;4992868;28;20213;-79
2022/03/19 08:58:01;;;;;;;0.20;0.20;;;8.80;99.90;;;9.22;81.98;101944.19;4992371;28;20208;-80
2022/03/19 09:00:29;;;;;;;0.20;0.20;;;8.90;99.90;;;9.25;81.61;101925.81;4992831;28;20224;-80
2022/03/19 09:02:57;;;;;;;0.65;0.65;;;9.00;99.90;;;9.33;81.30;101921.72;4986600;28;20235;-80
2022/03/19 09:05:27;;;;;;;0.20;0.20;;;9.10;99.90;;;9.41;80.28;101896.50;4993406;28;20225;-80
2022/03/19 09:07:55;;;;;;;0.20;0.20;;;9.10;99.90;;;9.37;80.23;101880.50;4992326;28;20657;-79
2022/03/19 09:10:23;;;;;;;0.20;0.20;;;9.20;99.90;;;9.39;79.34;101858.59;4993111;28;20236;-80
2022/03/19 09:12:51;;;;;;;0.20;0.20;;;9.20;99.90;;;9.70;78.94;101872.91;4993019;28;20204;-79
2022/03/19 09:15:19;;;;;;;0.20;0.20;;;9.30;99.90;;;9.78;78.50;101850.28;4988073;28;20212;-80
2022/03/19 09:17:47;;;;;;;0.10;0.10;;;9.40;99.90;;;9.77;78.00;101822.97;4972692;28;20359;-79
2022/03/19 09:20:14;;;;;;;0.10;0.10;;;9.50;99.90;;;9.89;77.15;101807.53;4989095;28;20232;-77
2022/03/19 09:22:42;;;;;;;0.82;0.82;;;9.60;99.90;;;9.77;77.00;101771.88;5008177;28;20225;-80
2022/03/19 09:25:10;;;;;;;0.10;0.10;;;9.60;99.90;;;9.86;76.05;101773.06;4988033;28;20204;-80
2022/03/19 09:27:39;;;;;;;0.10;0.10;;;9.60;99.90;;;10.09;75.65;101775.56;4993777;28;20216;-79
2022/03/19 09:30:09;;;;;;;0.20;0.20;;;9.80;99.90;;;10.09;74.59;101746.50;4983843;28;20229;-79
2022/03/19 09:32:37;;;;;;;0.10;0.10;;;9.80;99.90;;;10.20;74.13;101737.19;4993694;28;20223;-79
2022/03/19 09:35:06;;;;;;;0.20;0.20;;;10.00;99.90;;;10.32;73.62;101727.00;4993089;28;20209;-79
2022/03/19 09:37:35;;;;;;;0.20;0.20;;;10.10;99.90;;;10.37;72.72;101708.63;4993880;28;20201;-80
2022/03/19 09:40:04;;;;;;;0.20;0.20;;;10.10;99.90;;;10.71;72.48;101723.78;4992342;28;20232;-81
2022/03/19 09:42:32;;;;;;;0.45;0.45;;;10.30;99.90;;;10.78;71.41;101681.66;4992775;28;20201;-80
2022/03/19 09:45:00;;;;;;;0.10;0.10;;;10.50;99.90;;;10.83;70.68;101660.59;5008119;28;20211;-80
2022/03/19 09:47:28;;;;;;;0.30;0.30;;;10.60;99.90;;;10.97;70.48;101645.09;4992950;28;20211;-80
2022/03/19 09:49:57;;;;;;;0.20;0.20;;;10.70;99.90;;;10.85;70.14;101598.94;4991946;28;20213;-79
2022/03/19 09:52:28;;;;;;;0.10;0.10;;;10.80;99.90;;;10.88;69.41;101574.28;4992734;28;20288;-81
2022/03/19 09:55:00;;;;;;;0.28;0.28;;;10.80;99.90;;;11.01;70.23;101589.63;4992117;28;20212;-80
2022/03/19 09:57:28;;;;;;;0.10;0.10;;;10.90;99.90;;;11.19;69.50;101586.56;4992538;28;20209;-81
2022/03/19 09:59:57;;;;;;;0.13;0.13;;;10.90;99.90;;;11.25;68.74;101559.31;4992616;28;20697;-80
2022/03/19 10:02:25;;;;;;;0.10;0.10;;;11.10;99.90;;;11.11;68.83;101520.19;4992366;28;20216;-80
2022/03/19 10:04:57;;;;;;;0.10;0.10;;;11.20;99.90;;;11.27;68.85;101531.13;4993661;28;20216;-80
2022/03/19 10:10:12;;;;;;;0.10;0.10;;;11.40;99.90;;;11.71;66.42;101498.63;4990987;28;20224;-81
2022/03/19 10:12:46;;;;;;;0.20;0.20;;;11.60;99.90;;;11.68;67.52;101487.91;5007227;28;20213;-80
2022/03/19 10:15:14;;;;;;;0.10;0.10;;;11.60;99.90;;;11.88;67.04;101496.34;4992147;28;20212;-80
2022/03/19 10:17:46;;;;;;;0.17;0.17;;;11.80;99.90;;;11.97;66.27;101477.09;4993516;28;20208;-81
2022/03/19 10:20:14;;;;;;;0.00;0.00;;;11.80;99.90;;;11.72;64.25;101367.91;4992437;28;20240;-81
2022/03/19 10:22:46;;;;;;;0.10;0.10;;;11.90;99.90;;;11.55;64.16;101313.66;4992227;28;20684;-81
2022/03/19 10:25:18;;;;;;;0.10;0.10;;;11.80;99.90;;;11.98;64.69;101389.63;5007546;28;20208;-81
2022/03/19 10:27:46;;;;;;;0.10;0.10;;;11.80;99.90;;;12.01;64.61;101389.69;5007968;28;20664;-81
2022/03/19 10:30:20;;;;;;;0.08;0.08;;;12.00;99.90;;;12.40;64.22;101410.72;4992664;28;20232;-85
2022/03/19 10:32:52;;;;;;;0.20;0.20;;;12.20;99.90;;;12.34;64.14;101380.53;4993064;28;20208;-84
2022/03/19 10:35:27;;;;;;;0.20;0.20;;;12.30;99.90;;;12.29;64.62;101361.91;4992404;28;20212;-84
2022/03/19 10:37:57;;;;;;;0.63;0.63;;;12.30;99.90;;;12.67;63.61;101382.84;4990909;28;20284;-85
2022/03/19 10:40:44;;;;;;;0.10;0.10;;;12.50;99.90;;;12.80;63.46;101372.44;4991273;28;20224;-84
2022/03/19 10:43:12;;;;;;;1.00;1.00;;;12.70;99.90;;;12.78;62.60;101323.75;4989007;28;20220;-85
2022/03/19 10:45:48;;;;;;;0.10;0.10;;;12.80;99.90;;;13.14;62.97;101363.22;4992276;28;20205;-80
2022/03/19 10:48:20;;;;;;;0.10;0.10;;;13.00;99.90;;;13.21;61.66;101327.03;4993202;28;20215;-80